sensor_id;sensor_type;location;lat;lon;timestamp;temperature;humidity
5174;DHT22;2606;50.934;6.934;2022-08-19T00:01:57;21.50;99.90
5174;DHT22;2606;50.934;6.934;2022-08-19T00:04:26;21.40;99.90
5174;DHT22;2606;50.934;6.934;2022-08-19T00:06:52;21.40;99.90
5174;DHT22;2606;50.934;6.934;2022-08-19T00:09:20;21.40;99.90
5174;DHT22;2606;50.934;6.934;2022-08-19T00:11:46;21.40;99.90
5174;DHT22;2606;50.934;6.934;2022-08-19T00:14:14;21.30;99.90
5174;DHT22;2606;50.934;6.934;2022-08-19T00:16:43;21.30;99.90
5174;DHT22;2606;50.934;6.934;2022-08-19T00:19:09;21.30;99.90
5174;DHT22;2606;50.934;6.934;2022-08-19T00:21:35;21.30;99.90
5174;DHT22;2606;50.934;6.934;2022-08-19T00:24:09;21.30;99.90
5174;DHT22;2606;50.934;6.934;2022-08-19T00:26:36;21.20;99.90
5174;DHT22;2606;50.934;6.934;2022-08-19T00:29:04;21.20;99.90
5174;DHT22;2606;50.934;6.934;2022-08-19T00:31:30;21.20;99.90
5174;DHT22;2606;50.934;6.934;2022-08-19T00:33:56;21.20;99.90
5174;DHT22;2606;50.934;6.934;2022-08-19T00:36:22;21.20;99.90
5174;DHT22;2606;50.934;6.934;2022-08-19T00:38:48;21.20;99.90
5174;DHT22;2606;50.934;6.934;2022-08-19T00:41:16;21.20;99.90
5174;DHT22;2606;50.934;6.934;2022-08-19T00:43:43;21.10;99.90
5174;DHT22;2606;50.934;6.934;2022-08-19T00:46:21;21.10;99.90
5174;DHT22;2606;50.934;6.934;2022-08-19T00:48:46;21.10;99.90
5174;DHT22;2606;50.934;6.934;2022-08-19T00:51:12;21.10;99.90
5174;DHT22;2606;50.934;6.934;2022-08-19T00:53:37;21.00;99.90
5174;DHT22;2606;50.934;6.934;2022-08-19T00:56:05;21.00;99.90
5174;DHT22;2606;50.934;6.934;2022-08-19T00:58:34;21.00;99.90
5174;DHT22;2606;50.934;6.934;2022-08-19T01:01:02;20.90;99.90
5174;DHT22;2606;50.934;6.934;2022-08-19T01:03:28;20.90;99.90
5174;DHT22;2606;50.934;6.934;2022-08-19T01:05:54;20.90;99.90
5174;DHT22;2606;50.934;6.934;2022-08-19T01:08:21;20.90;99.90
5174;DHT22;2606;50.934;6.934;2022-08-19T01:10:53;20.80;99.90
5174;DHT22;2606;50.934;6.934;2022-08-19T01:13:23;20.80;99.90
5174;DHT22;2606;50.934;6.934;2022-08-19T01:15:54;20.80;99.90
5174;DHT22;2606;50.934;6.934;2022-08-19T01:18:21;20.80;99.90
5174;DHT22;2606;50.934;6.934;2022-08-19T01:20:47;20.80;99.90
5174;DHT22;2606;50.934;6.934;2022-08-19T01:23:14;20.80;99.90
5174;DHT22;2606;50.934;6.934;2022-08-19T01:25:51;20.70;99.90
5174;DHT22;2606;50.934;6.934;2022-08-19T01:28:24;20.70;99.90
5174;DHT22;2606;50.934;6.934;2022-08-19T01:30:51;20.70;99.90
5174;DHT22;2606;50.934;6.934;2022-08-19T01:33:18;20.70;99.90
5174;DHT22;2606;50.934;6.934;2022-08-19T01:35:45;20.70;99.90
5174;DHT22;2606;50.934;6.934;2022-08-19T01:38:24;20.70;99.90
5174;DHT22;2606;50.934;6.934;2022-08-19T01:40:50;20.70;99.90
5174;DHT22;2606;50.934;6.934;2022-08-19T01:43:16;20.60;99.90
5174;DHT22;2606;50.934;6.934;2022-08-19T01:45:45;20.60;99.90
5174;DHT22;2606;50.934;6.934;2022-08-19T01:48:12;20.50;99.90
5174;DHT22;2606;50.934;6.934;2022-08-19T01:50:38;20.50;99.90
5174;DHT22;2606;50.934;6.934;2022-08-19T01:53:07;20.50;99.90
5174;DHT22;2606;50.934;6.934;2022-08-19T01:55:37;20.50;99.90
5174;DHT22;2606;50.934;6.934;2022-08-19T01:58:04;20.50;99.90
5174;DHT22;2606;50.934;6.934;2022-08-19T02:00:31;20.40;99.90
5174;DHT22;2606;50.934;6.934;2022-08-19T02:02:57;20.40;99.90
5174;DHT22;2606;50.934;6.934;2022-08-19T02:05:23;20.40;99.90
5174;DHT22;2606;50.934;6.934;2022-08-19T02:07:49;20.40;99.90
5174;DHT22;2606;50.934;6.934;2022-08-19T02:10:18;20.40;99.90
5174;DHT22;2606;50.934;6.934;2022-08-19T02:12:45;20.40;99.90
5174;DHT22;2606;50.934;6.934;2022-08-19T02:15:11;20.40;99.90
5174;DHT22;2606;50.934;6.934;2022-08-19T02:17:37;20.40;99.90
5174;DHT22;2606;50.934;6.934;2022-08-19T02:20:03;20.40;99.90
5174;DHT22;2606;50.934;6.934;2022-08-19T02:22:29;20.50;99.90
5174;DHT22;2606;50.934;6.934;2022-08-19T02:24:55;20.50;99.90
5174;DHT22;2606;50.934;6.934;2022-08-19T02:27:21;20.50;99.90
5174;DHT22;2606;50.934;6.934;2022-08-19T02:29:49;20.50;99.90
5174;DHT22;2606;50.934;6.934;2022-08-19T02:32:15;20.50;99.90
5174;DHT22;2606;50.934;6.934;2022-08-19T02:34:41;20.50;99.90
5174;DHT22;2606;50.934;6.934;2022-08-19T02:37:07;20.40;99.90
5174;DHT22;2606;50.934;6.934;2022-08-19T02:39:53;20.40;99.90
5174;DHT22;2606;50.934;6.934;2022-08-19T02:42:19;20.40;99.90
5174;DHT22;2606;50.934;6.934;2022-08-19T02:44:44;20.40;99.90
5174;DHT22;2606;50.934;6.934;2022-08-19T02:47:10;20.40;99.90
5174;DHT22;2606;50.934;6.934;2022-08-19T02:49:36;20.30;99.90
5174;DHT22;2606;50.934;6.934;2022-08-19T02:52:02;20.30;99.90
5174;DHT22;2606;50.934;6.934;2022-08-19T02:54:28;20.30;99.90
5174;DHT22;2606;50.934;6.934;2022-08-19T02:56:54;20.30;99.90
5174;DHT22;2606;50.934;6.934;2022-08-19T02:59:19;20.30;99.90
5174;DHT22;2606;50.934;6.934;2022-08-19T03:01:45;20.20;99.90
5174;DHT22;2606;50.934;6.934;2022-08-19T03:04:14;20.20;99.90
5174;DHT22;2606;50.934;6.934;2022-08-19T03:06:43;20.20;99.90
5174;DHT22;2606;50.934;6.934;2022-08-19T03:09:09;20.20;99.90
5174;DHT22;2606;50.934;6.934;2022-08-19T03:11:35;20.20;99.90
5174;DHT22;2606;50.934;6.934;2022-08-19T03:14:02;20.20;99.90
5174;DHT22;2606;50.934;6.934;2022-08-19T03:16:31;20.20;99.90
5174;DHT22;2606;50.934;6.934;2022-08-19T03:18:57;20.10;99.90
5174;DHT22;2606;50.934;6.934;2022-08-19T03:21:30;20.10;99.90
5174;DHT22;2606;50.934;6.934;2022-08-19T03:23:58;20.10;99.90
5174;DHT22;2606;50.934;6.934;2022-08-19T03:26:25;20.10;99.90
5174;DHT22;2606;50.934;6.934;2022-08-19T03:28:50;20.00;99.90
5174;DHT22;2606;50.934;6.934;2022-08-19T03:31:19;20.00;99.90
5174;DHT22;2606;50.934;6.934;2022-08-19T03:33:45;19.90;99.90
5174;DHT22;2606;50.934;6.934;2022-08-19T03:36:16;20.00;99.90
5174;DHT22;2606;50.934;6.934;2022-08-19T03:38:44;19.90;99.90
5174;DHT22;2606;50.934;6.934;2022-08-19T03:41:15;20.00;99.90
5174;DHT22;2606;50.934;6.934;2022-08-19T03:43:42;19.90;99.90
5174;DHT22;2606;50.934;6.934;2022-08-19T03:46:11;19.90;99.90
5174;DHT22;2606;50.934;6.934;2022-08-19T03:48:39;19.90;99.90
5174;DHT22;2606;50.934;6.934;2022-08-19T03:51:06;19.90;99.90
5174;DHT22;2606;50.934;6.934;2022-08-19T03:53:33;19.90;99.90
5174;DHT22;2606;50.934;6.934;2022-08-19T03:56:00;19.90;99.90
5174;DHT22;2606;50.934;6.934;2022-08-19T03:58:28;19.80;99.90
5174;DHT22;2606;50.934;6.934;2022-08-19T04:00:57;19.80;99.90
5174;DHT22;2606;50.934;6.934;2022-08-19T04:03:26;19.80;99.90
5174;DHT22;2606;50.934;6.934;2022-08-19T04:05:53;19.80;99.90
5174;DHT22;2606;50.934;6.934;2022-08-19T04:08:19;19.80;99.90
5174;DHT22;2606;50.934;6.934;2022-08-19T04:10:48;19.80;99.90
5174;DHT22;2606;50.934;6.934;2022-08-19T04:13:17;19.70;99.90
5174;DHT22;2606;50.934;6.934;2022-08-19T04:15:45;19.70;99.90
5174;DHT22;2606;50.934;6.934;2022-08-19T04:18:12;19.70;99.90
5174;DHT22;2606;50.934;6.934;2022-08-19T04:20:43;19.70;99.90
5174;DHT22;2606;50.934;6.934;2022-08-19T04:23:10;19.70;99.90
5174;DHT22;2606;50.934;6.934;2022-08-19T04:25:40;19.70;99.90
5174;DHT22;2606;50.934;6.934;2022-08-19T04:28:07;19.70;99.90
5174;DHT22;2606;50.934;6.934;2022-08-19T04:30:41;19.60;99.90
5174;DHT22;2606;50.934;6.934;2022-08-19T04:33:08;19.60;99.90
5174;DHT22;2606;50.934;6.934;2022-08-19T04:35:39;19.60;99.90
5174;DHT22;2606;50.934;6.934;2022-08-19T04:38:05;19.70;99.90
5174;DHT22;2606;50.934;6.934;2022-08-19T04:40:31;19.70;99.90
5174;DHT22;2606;50.934;6.934;2022-08-19T04:43:16;19.70;99.90
5174;DHT22;2606;50.934;6.934;2022-08-19T04:45:44;19.70;99.90
5174;DHT22;2606;50.934;6.934;2022-08-19T04:48:11;19.70;99.90
5174;DHT22;2606;50.934;6.934;2022-08-19T04:50:40;19.70;99.90
5174;DHT22;2606;50.934;6.934;2022-08-19T04:53:07;19.70;99.90
5174;DHT22;2606;50.934;6.934;2022-08-19T04:55:32;19.70;99.90
5174;DHT22;2606;50.934;6.934;2022-08-19T04:57:58;19.80;99.90
5174;DHT22;2606;50.934;6.934;2022-08-19T05:00:24;19.80;99.90
5174;DHT22;2606;50.934;6.934;2022-08-19T05:02:50;19.80;99.90
5174;DHT22;2606;50.934;6.934;2022-08-19T05:05:16;19.70;99.90
5174;DHT22;2606;50.934;6.934;2022-08-19T05:07:42;19.80;99.90
5174;DHT22;2606;50.934;6.934;2022-08-19T05:10:08;19.70;99.90
5174;DHT22;2606;50.934;6.934;2022-08-19T05:12:34;19.80;99.90
5174;DHT22;2606;50.934;6.934;2022-08-19T05:15:00;19.70;99.90
5174;DHT22;2606;50.934;6.934;2022-08-19T05:17:26;19.70;99.90
5174;DHT22;2606;50.934;6.934;2022-08-19T05:19:52;19.80;99.90
5174;DHT22;2606;50.934;6.934;2022-08-19T05:22:36;19.70;99.90
5174;DHT22;2606;50.934;6.934;2022-08-19T05:25:08;19.70;99.90
5174;DHT22;2606;50.934;6.934;2022-08-19T05:27:34;19.80;99.90
5174;DHT22;2606;50.934;6.934;2022-08-19T05:30:01;19.70;99.90
5174;DHT22;2606;50.934;6.934;2022-08-19T05:32:27;19.70;99.90
5174;DHT22;2606;50.934;6.934;2022-08-19T05:34:53;19.70;99.90
5174;DHT22;2606;50.934;6.934;2022-08-19T05:37:19;19.70;99.90
5174;DHT22;2606;50.934;6.934;2022-08-19T05:39:44;19.70;99.90
5174;DHT22;2606;50.934;6.934;2022-08-19T05:42:11;19.80;99.90
5174;DHT22;2606;50.934;6.934;2022-08-19T05:44:39;19.70;99.90
5174;DHT22;2606;50.934;6.934;2022-08-19T05:47:07;19.70;99.90
5174;DHT22;2606;50.934;6.934;2022-08-19T05:49:34;19.70;99.90
5174;DHT22;2606;50.934;6.934;2022-08-19T05:52:07;19.70;99.90
5174;DHT22;2606;50.934;6.934;2022-08-19T05:54:34;19.80;99.90
5174;DHT22;2606;50.934;6.934;2022-08-19T05:57:02;19.80;99.90
5174;DHT22;2606;50.934;6.934;2022-08-19T05:59:28;19.80;99.90
5174;DHT22;2606;50.934;6.934;2022-08-19T06:01:54;19.80;99.90
5174;DHT22;2606;50.934;6.934;2022-08-19T06:04:21;19.90;99.90
5174;DHT22;2606;50.934;6.934;2022-08-19T06:06:48;19.90;99.90
5174;DHT22;2606;50.934;6.934;2022-08-19T06:09:15;19.90;99.90
5174;DHT22;2606;50.934;6.934;2022-08-19T06:11:50;19.90;99.90
5174;DHT22;2606;50.934;6.934;2022-08-19T06:14:22;19.90;99.90
5174;DHT22;2606;50.934;6.934;2022-08-19T06:16:49;20.00;99.90
5174;DHT22;2606;50.934;6.934;2022-08-19T06:19:19;20.00;99.90
5174;DHT22;2606;50.934;6.934;2022-08-19T06:21:47;20.10;99.90
5174;DHT22;2606;50.934;6.934;2022-08-19T06:24:14;20.10;99.90
5174;DHT22;2606;50.934;6.934;2022-08-19T06:26:44;20.10;99.90
5174;DHT22;2606;50.934;6.934;2022-08-19T06:29:12;20.10;99.90
5174;DHT22;2606;50.934;6.934;2022-08-19T06:31:41;20.10;99.90
5174;DHT22;2606;50.934;6.934;2022-08-19T06:34:07;20.20;99.90
5174;DHT22;2606;50.934;6.934;2022-08-19T06:36:36;20.20;99.90
5174;DHT22;2606;50.934;6.934;2022-08-19T06:39:15;20.30;99.90
5174;DHT22;2606;50.934;6.934;2022-08-19T06:41:43;20.40;99.90
5174;DHT22;2606;50.934;6.934;2022-08-19T06:44:10;20.50;99.90
5174;DHT22;2606;50.934;6.934;2022-08-19T06:46:37;20.60;99.90
5174;DHT22;2606;50.934;6.934;2022-08-19T06:49:03;20.70;99.90
5174;DHT22;2606;50.934;6.934;2022-08-19T06:51:29;20.80;99.90
5174;DHT22;2606;50.934;6.934;2022-08-19T06:53:56;20.80;99.90
5174;DHT22;2606;50.934;6.934;2022-08-19T06:56:25;20.90;99.90
5174;DHT22;2606;50.934;6.934;2022-08-19T06:58:57;21.10;99.90
5174;DHT22;2606;50.934;6.934;2022-08-19T07:01:22;21.20;99.90
5174;DHT22;2606;50.934;6.934;2022-08-19T07:03:48;21.30;99.90
5174;DHT22;2606;50.934;6.934;2022-08-19T07:06:16;21.40;99.90
5174;DHT22;2606;50.934;6.934;2022-08-19T07:08:44;21.40;99.90
5174;DHT22;2606;50.934;6.934;2022-08-19T07:11:13;21.40;99.90
5174;DHT22;2606;50.934;6.934;2022-08-19T07:13:40;21.40;99.90
5174;DHT22;2606;50.934;6.934;2022-08-19T07:16:11;21.40;99.90
5174;DHT22;2606;50.934;6.934;2022-08-19T07:18:37;21.50;99.90
5174;DHT22;2606;50.934;6.934;2022-08-19T07:21:05;21.50;99.90
5174;DHT22;2606;50.934;6.934;2022-08-19T07:23:32;21.60;99.90
5174;DHT22;2606;50.934;6.934;2022-08-19T07:25:57;21.70;99.90
5174;DHT22;2606;50.934;6.934;2022-08-19T07:28:23;21.80;99.90
5174;DHT22;2606;50.934;6.934;2022-08-19T07:30:49;21.90;99.90
5174;DHT22;2606;50.934;6.934;2022-08-19T07:33:15;22.00;99.90
5174;DHT22;2606;50.934;6.934;2022-08-19T07:35:42;22.10;99.90
5174;DHT22;2606;50.934;6.934;2022-08-19T07:38:07;22.20;99.90
5174;DHT22;2606;50.934;6.934;2022-08-19T07:40:33;22.20;99.90
5174;DHT22;2606;50.934;6.934;2022-08-19T07:42:59;22.30;99.90
5174;DHT22;2606;50.934;6.934;2022-08-19T07:45:25;22.30;99.90
5174;DHT22;2606;50.934;6.934;2022-08-19T07:47:50;22.30;99.90
5174;DHT22;2606;50.934;6.934;2022-08-19T07:50:18;22.30;99.90
5174;DHT22;2606;50.934;6.934;2022-08-19T07:52:44;22.30;99.90
5174;DHT22;2606;50.934;6.934;2022-08-19T07:55:10;22.30;99.90
5174;DHT22;2606;50.934;6.934;2022-08-19T07:57:36;22.30;99.90
5174;DHT22;2606;50.934;6.934;2022-08-19T08:00:04;22.30;99.90
5174;DHT22;2606;50.934;6.934;2022-08-19T08:02:29;22.30;99.90
5174;DHT22;2606;50.934;6.934;2022-08-19T08:04:55;22.20;99.90
5174;DHT22;2606;50.934;6.934;2022-08-19T08:07:39;22.20;99.90
5174;DHT22;2606;50.934;6.934;2022-08-19T08:10:24;22.20;99.90
5174;DHT22;2606;50.934;6.934;2022-08-19T08:12:49;22.20;99.90
5174;DHT22;2606;50.934;6.934;2022-08-19T08:15:15;22.20;99.90
5174;DHT22;2606;50.934;6.934;2022-08-19T08:17:45;22.20;99.90
5174;DHT22;2606;50.934;6.934;2022-08-19T08:20:12;22.20;99.90
5174;DHT22;2606;50.934;6.934;2022-08-19T08:22:43;22.20;99.90
5174;DHT22;2606;50.934;6.934;2022-08-19T08:25:27;22.30;99.90
5174;DHT22;2606;50.934;6.934;2022-08-19T08:27:53;22.40;99.90
5174;DHT22;2606;50.934;6.934;2022-08-19T08:30:22;22.50;99.90
5174;DHT22;2606;50.934;6.934;2022-08-19T08:32:49;22.60;99.90
5174;DHT22;2606;50.934;6.934;2022-08-19T08:35:17;22.70;99.90
5174;DHT22;2606;50.934;6.934;2022-08-19T08:37:44;22.80;99.90
5174;DHT22;2606;50.934;6.934;2022-08-19T08:40:22;22.90;99.90
5174;DHT22;2606;50.934;6.934;2022-08-19T08:43:03;23.00;99.90
5174;DHT22;2606;50.934;6.934;2022-08-19T08:45:31;23.00;99.90
5174;DHT22;2606;50.934;6.934;2022-08-19T08:48:02;23.00;99.90
5174;DHT22;2606;50.934;6.934;2022-08-19T08:50:34;23.10;99.90
5174;DHT22;2606;50.934;6.934;2022-08-19T08:53:06;23.20;99.90
5174;DHT22;2606;50.934;6.934;2022-08-19T08:55:33;23.30;99.90
5174;DHT22;2606;50.934;6.934;2022-08-19T08:58:05;23.30;99.90
5174;DHT22;2606;50.934;6.934;2022-08-19T09:00:34;23.40;99.90
5174;DHT22;2606;50.934;6.934;2022-08-19T09:03:03;23.50;99.90
5174;DHT22;2606;50.934;6.934;2022-08-19T09:06:01;23.60;99.90
5174;DHT22;2606;50.934;6.934;2022-08-19T09:08:32;23.60;99.90
5174;DHT22;2606;50.934;6.934;2022-08-19T09:11:07;23.70;99.90
5174;DHT22;2606;50.934;6.934;2022-08-19T09:13:56;23.80;99.90
5174;DHT22;2606;50.934;6.934;2022-08-19T09:16:27;23.90;99.90
5174;DHT22;2606;50.934;6.934;2022-08-19T09:18:55;24.00;99.90
5174;DHT22;2606;50.934;6.934;2022-08-19T09:21:24;24.00;99.90
5174;DHT22;2606;50.934;6.934;2022-08-19T09:23:51;24.10;99.90
5174;DHT22;2606;50.934;6.934;2022-08-19T09:26:20;24.20;99.90
5174;DHT22;2606;50.934;6.934;2022-08-19T09:28:48;24.30;99.90
5174;DHT22;2606;50.934;6.934;2022-08-19T09:31:18;24.40;99.90
5174;DHT22;2606;50.934;6.934;2022-08-19T09:33:46;24.60;99.90
5174;DHT22;2606;50.934;6.934;2022-08-19T09:36:14;24.70;99.00
5174;DHT22;2606;50.934;6.934;2022-08-19T09:38:41;24.80;99.10
5174;DHT22;2606;50.934;6.934;2022-08-19T09:41:09;24.90;98.60
5174;DHT22;2606;50.934;6.934;2022-08-19T09:43:37;25.10;99.10
5174;DHT22;2606;50.934;6.934;2022-08-19T09:46:04;25.30;98.00
5174;DHT22;2606;50.934;6.934;2022-08-19T09:48:35;25.40;98.50
5174;DHT22;2606;50.934;6.934;2022-08-19T09:51:09;25.60;97.60
5174;DHT22;2606;50.934;6.934;2022-08-19T09:53:35;25.70;97.30
5174;DHT22;2606;50.934;6.934;2022-08-19T09:56:02;25.90;96.60
5174;DHT22;2606;50.934;6.934;2022-08-19T09:58:28;26.10;95.70
5174;DHT22;2606;50.934;6.934;2022-08-19T10:00:56;26.20;95.70
5174;DHT22;2606;50.934;6.934;2022-08-19T10:03:23;26.50;95.00
5174;DHT22;2606;50.934;6.934;2022-08-19T10:05:48;26.70;94.70
5174;DHT22;2606;50.934;6.934;2022-08-19T10:08:27;27.00;93.60
5174;DHT22;2606;50.934;6.934;2022-08-19T10:10:54;27.20;92.90
5174;DHT22;2606;50.934;6.934;2022-08-19T10:13:25;27.30;92.90
5174;DHT22;2606;50.934;6.934;2022-08-19T10:15:56;27.60;92.50
5174;DHT22;2606;50.934;6.934;2022-08-19T10:18:24;27.90;90.60
5174;DHT22;2606;50.934;6.934;2022-08-19T10:20:50;28.00;90.50
5174;DHT22;2606;50.934;6.934;2022-08-19T10:23:17;28.00;90.30
5174;DHT22;2606;50.934;6.934;2022-08-19T10:25:43;28.10;89.60
5174;DHT22;2606;50.934;6.934;2022-08-19T10:28:09;28.10;89.20
5174;DHT22;2606;50.934;6.934;2022-08-19T10:30:38;28.30;89.10
5174;DHT22;2606;50.934;6.934;2022-08-19T10:33:04;28.30;89.50
5174;DHT22;2606;50.934;6.934;2022-08-19T10:35:30;28.40;88.90
5174;DHT22;2606;50.934;6.934;2022-08-19T10:37:56;28.60;87.00
5174;DHT22;2606;50.934;6.934;2022-08-19T10:40:29;28.70;87.30
5174;DHT22;2606;50.934;6.934;2022-08-19T10:42:55;29.10;86.50
5174;DHT22;2606;50.934;6.934;2022-08-19T10:45:23;29.40;83.40
5174;DHT22;2606;50.934;6.934;2022-08-19T10:47:55;29.60;82.10
5174;DHT22;2606;50.934;6.934;2022-08-19T10:50:20;29.70;82.40
5174;DHT22;2606;50.934;6.934;2022-08-19T10:53:07;29.80;80.80
5174;DHT22;2606;50.934;6.934;2022-08-19T10:55:40;29.80;80.70
5174;DHT22;2606;50.934;6.934;2022-08-19T10:58:24;29.60;80.90
5174;DHT22;2606;50.934;6.934;2022-08-19T11:00:53;29.60;82.10
5174;DHT22;2606;50.934;6.934;2022-08-19T11:03:19;29.60;81.20
5174;DHT22;2606;50.934;6.934;2022-08-19T11:05:45;29.50;80.70
5174;DHT22;2606;50.934;6.934;2022-08-19T11:08:11;29.30;81.30
5174;DHT22;2606;50.934;6.934;2022-08-19T11:10:41;29.10;82.50
5174;DHT22;2606;50.934;6.934;2022-08-19T11:13:06;29.00;83.60
5174;DHT22;2606;50.934;6.934;2022-08-19T11:15:32;29.10;82.00
5174;DHT22;2606;50.934;6.934;2022-08-19T11:17:58;29.10;82.20
5174;DHT22;2606;50.934;6.934;2022-08-19T11:20:24;29.30;81.00
5174;DHT22;2606;50.934;6.934;2022-08-19T11:22:52;29.40;80.00
5174;DHT22;2606;50.934;6.934;2022-08-19T11:25:19;29.70;80.40
5174;DHT22;2606;50.934;6.934;2022-08-19T11:27:44;30.00;78.20
5174;DHT22;2606;50.934;6.934;2022-08-19T11:30:12;30.10;77.00
5174;DHT22;2606;50.934;6.934;2022-08-19T11:32:42;30.30;75.60
5174;DHT22;2606;50.934;6.934;2022-08-19T11:35:08;30.20;74.40
5174;DHT22;2606;50.934;6.934;2022-08-19T11:37:33;30.00;73.90
5174;DHT22;2606;50.934;6.934;2022-08-19T11:40:03;29.80;74.70
5174;DHT22;2606;50.934;6.934;2022-08-19T11:42:29;29.80;74.40
5174;DHT22;2606;50.934;6.934;2022-08-19T11:45:13;29.90;74.40
5174;DHT22;2606;50.934;6.934;2022-08-19T11:47:39;30.00;72.50
5174;DHT22;2606;50.934;6.934;2022-08-19T11:50:05;30.20;73.00
5174;DHT22;2606;50.934;6.934;2022-08-19T11:52:31;30.50;72.10
5174;DHT22;2606;50.934;6.934;2022-08-19T11:54:56;30.90;69.70
5174;DHT22;2606;50.934;6.934;2022-08-19T11:57:22;31.30;66.70
5174;DHT22;2606;50.934;6.934;2022-08-19T11:59:49;31.50;66.70
5174;DHT22;2606;50.934;6.934;2022-08-19T12:02:15;31.70;66.30
5174;DHT22;2606;50.934;6.934;2022-08-19T12:04:41;31.80;66.30
5174;DHT22;2606;50.934;6.934;2022-08-19T12:07:06;31.80;65.30
5174;DHT22;2606;50.934;6.934;2022-08-19T12:09:32;31.80;64.90
5174;DHT22;2606;50.934;6.934;2022-08-19T12:12:00;31.70;64.30
5174;DHT22;2606;50.934;6.934;2022-08-19T12:14:27;31.60;64.10
5174;DHT22;2606;50.934;6.934;2022-08-19T12:16:53;31.80;63.80
5174;DHT22;2606;50.934;6.934;2022-08-19T12:19:19;32.10;62.60
5174;DHT22;2606;50.934;6.934;2022-08-19T12:21:44;32.00;61.70
5174;DHT22;2606;50.934;6.934;2022-08-19T12:24:10;32.00;61.60
5174;DHT22;2606;50.934;6.934;2022-08-19T12:26:36;32.00;60.40
5174;DHT22;2606;50.934;6.934;2022-08-19T12:29:02;32.20;59.90
5174;DHT22;2606;50.934;6.934;2022-08-19T12:31:28;32.30;59.20
5174;DHT22;2606;50.934;6.934;2022-08-19T12:33:54;32.10;58.80
5174;DHT22;2606;50.934;6.934;2022-08-19T12:36:20;32.10;58.90
5174;DHT22;2606;50.934;6.934;2022-08-19T12:38:47;32.10;58.50
5174;DHT22;2606;50.934;6.934;2022-08-19T12:41:15;32.10;59.00
5174;DHT22;2606;50.934;6.934;2022-08-19T12:43:42;32.20;59.00
5174;DHT22;2606;50.934;6.934;2022-08-19T12:46:09;32.20;59.30
5174;DHT22;2606;50.934;6.934;2022-08-19T12:48:35;32.30;59.70
5174;DHT22;2606;50.934;6.934;2022-08-19T12:51:06;32.90;58.60
5174;DHT22;2606;50.934;6.934;2022-08-19T12:53:32;33.30;56.30
5174;DHT22;2606;50.934;6.934;2022-08-19T12:55:58;33.30;55.10
5174;DHT22;2606;50.934;6.934;2022-08-19T12:58:25;33.40;54.50
5174;DHT22;2606;50.934;6.934;2022-08-19T13:00:52;33.40;54.30
5174;DHT22;2606;50.934;6.934;2022-08-19T13:03:18;33.40;54.20
5174;DHT22;2606;50.934;6.934;2022-08-19T13:05:43;33.10;54.50
5174;DHT22;2606;50.934;6.934;2022-08-19T13:08:12;32.80;55.00
5174;DHT22;2606;50.934;6.934;2022-08-19T13:10:38;32.70;55.30
5174;DHT22;2606;50.934;6.934;2022-08-19T13:13:06;32.60;55.00
5174;DHT22;2606;50.934;6.934;2022-08-19T13:15:34;32.70;54.40
5174;DHT22;2606;50.934;6.934;2022-08-19T13:18:00;32.80;53.70
5174;DHT22;2606;50.934;6.934;2022-08-19T13:20:26;32.70;53.50
5174;DHT22;2606;50.934;6.934;2022-08-19T13:22:53;32.80;53.20
5174;DHT22;2606;50.934;6.934;2022-08-19T13:25:19;32.80;52.30
5174;DHT22;2606;50.934;6.934;2022-08-19T13:27:47;32.90;51.60
5174;DHT22;2606;50.934;6.934;2022-08-19T13:30:15;33.10;51.40
5174;DHT22;2606;50.934;6.934;2022-08-19T13:32:59;33.30;50.80
5174;DHT22;2606;50.934;6.934;2022-08-19T13:35:42;33.30;50.30
5174;DHT22;2606;50.934;6.934;2022-08-19T13:38:09;33.20;50.40
5174;DHT22;2606;50.934;6.934;2022-08-19T13:40:35;33.20;49.80
5174;DHT22;2606;50.934;6.934;2022-08-19T13:43:02;33.50;49.40
5174;DHT22;2606;50.934;6.934;2022-08-19T13:45:29;33.40;49.10
5174;DHT22;2606;50.934;6.934;2022-08-19T13:47:57;33.50;48.30
5174;DHT22;2606;50.934;6.934;2022-08-19T13:50:27;33.40;48.10
5174;DHT22;2606;50.934;6.934;2022-08-19T13:52:54;33.60;48.40
5174;DHT22;2606;50.934;6.934;2022-08-19T13:55:21;33.60;48.90
5174;DHT22;2606;50.934;6.934;2022-08-19T13:57:54;33.90;48.30
5174;DHT22;2606;50.934;6.934;2022-08-19T14:00:21;33.90;47.70
5174;DHT22;2606;50.934;6.934;2022-08-19T14:02:52;33.80;47.30
5174;DHT22;2606;50.934;6.934;2022-08-19T14:05:19;34.00;47.00
5174;DHT22;2606;50.934;6.934;2022-08-19T14:07:45;34.10;46.80
5174;DHT22;2606;50.934;6.934;2022-08-19T14:10:11;34.30;46.50
5174;DHT22;2606;50.934;6.934;2022-08-19T14:12:38;34.40;45.60
5174;DHT22;2606;50.934;6.934;2022-08-19T14:15:06;34.50;44.60
5174;DHT22;2606;50.934;6.934;2022-08-19T14:17:31;34.40;44.90
5174;DHT22;2606;50.934;6.934;2022-08-19T14:20:01;34.30;46.00
5174;DHT22;2606;50.934;6.934;2022-08-19T14:22:29;34.00;46.50
5174;DHT22;2606;50.934;6.934;2022-08-19T14:24:56;33.90;46.30
5174;DHT22;2606;50.934;6.934;2022-08-19T14:27:25;33.70;46.70
5174;DHT22;2606;50.934;6.934;2022-08-19T14:29:52;33.50;47.10
5174;DHT22;2606;50.934;6.934;2022-08-19T14:32:18;33.00;47.60
5174;DHT22;2606;50.934;6.934;2022-08-19T14:34:43;32.70;48.60
5174;DHT22;2606;50.934;6.934;2022-08-19T14:37:14;32.30;49.10
5174;DHT22;2606;50.934;6.934;2022-08-19T14:39:41;32.10;49.30
5174;DHT22;2606;50.934;6.934;2022-08-19T14:42:07;31.80;50.10
5174;DHT22;2606;50.934;6.934;2022-08-19T14:44:34;31.60;50.10
5174;DHT22;2606;50.934;6.934;2022-08-19T14:46:59;31.10;51.00
5174;DHT22;2606;50.934;6.934;2022-08-19T14:49:25;30.90;51.90
5174;DHT22;2606;50.934;6.934;2022-08-19T14:51:51;30.80;52.50
5174;DHT22;2606;50.934;6.934;2022-08-19T14:54:16;30.70;52.20
5174;DHT22;2606;50.934;6.934;2022-08-19T14:56:42;30.50;52.30
5174;DHT22;2606;50.934;6.934;2022-08-19T14:59:08;30.40;52.70
5174;DHT22;2606;50.934;6.934;2022-08-19T15:01:34;30.30;52.70
5174;DHT22;2606;50.934;6.934;2022-08-19T15:04:00;30.20;52.30
5174;DHT22;2606;50.934;6.934;2022-08-19T15:06:26;30.20;52.10
5174;DHT22;2606;50.934;6.934;2022-08-19T15:08:52;30.10;51.70
5174;DHT22;2606;50.934;6.934;2022-08-19T15:11:21;30.00;51.70
5174;DHT22;2606;50.934;6.934;2022-08-19T15:13:48;29.90;51.90
5174;DHT22;2606;50.934;6.934;2022-08-19T15:16:14;29.80;51.60
5174;DHT22;2606;50.934;6.934;2022-08-19T15:18:42;29.70;52.10
5174;DHT22;2606;50.934;6.934;2022-08-19T15:21:13;29.50;52.10
5174;DHT22;2606;50.934;6.934;2022-08-19T15:23:39;29.40;52.60
5174;DHT22;2606;50.934;6.934;2022-08-19T15:26:05;29.30;53.00
5174;DHT22;2606;50.934;6.934;2022-08-19T15:28:31;29.30;53.30
5174;DHT22;2606;50.934;6.934;2022-08-19T15:30:58;29.20;53.20
5174;DHT22;2606;50.934;6.934;2022-08-19T15:33:23;29.30;53.10
5174;DHT22;2606;50.934;6.934;2022-08-19T15:35:49;29.20;52.60
5174;DHT22;2606;50.934;6.934;2022-08-19T15:38:16;29.20;52.30
5174;DHT22;2606;50.934;6.934;2022-08-19T15:40:47;29.20;52.90
5174;DHT22;2606;50.934;6.934;2022-08-19T15:43:14;29.10;53.10
5174;DHT22;2606;50.934;6.934;2022-08-19T15:45:41;29.10;53.90
5174;DHT22;2606;50.934;6.934;2022-08-19T15:48:07;29.00;54.70
5174;DHT22;2606;50.934;6.934;2022-08-19T15:50:33;28.90;55.30
5174;DHT22;2606;50.934;6.934;2022-08-19T15:53:06;28.80;56.00
5174;DHT22;2606;50.934;6.934;2022-08-19T15:55:34;28.70;56.80
5174;DHT22;2606;50.934;6.934;2022-08-19T15:58:06;28.70;57.20
5174;DHT22;2606;50.934;6.934;2022-08-19T16:00:50;28.60;57.60
5174;DHT22;2606;50.934;6.934;2022-08-19T16:03:34;28.70;59.10
5174;DHT22;2606;50.934;6.934;2022-08-19T16:06:18;28.80;61.90
5174;DHT22;2606;50.934;6.934;2022-08-19T16:08:59;28.80;59.90